Time;durP1;ratioP1;P1;durP2;ratioP2;P2;SDS_P1;SDS_P2;PMS_P1;PMS_P2;Temp;Humidity;BMP_temperature;BMP_pressure;BME280_temperature;BME280_humidity;BME280_pressure;Samples;Min_cycle;Max_cycle;Signal;HPM_P1;HPM_P2
2024/03/30 00:01:13;;;;;;;;;;;22.10;43.30;;;;;;5077790;28;19923;-43
2024/03/30 00:03:39;;;;;;;;;;;22.00;43.30;;;;;;5071366;28;19935;-42
2024/03/30 00:06:05;;;;;;;;;;;22.00;43.40;;;;;;5071948;28;19908;-45
2024/03/30 00:08:31;;;;;;;;;;;22.00;43.50;;;;;;5074764;28;19912;-43
2024/03/30 00:11:01;;;;;;;;;;;22.00;43.60;;;;;;5066515;28;19905;-42
2024/03/30 00:13:27;;;;;;;;;;;22.00;43.60;;;;;;5068540;28;19913;-45
2024/03/30 00:15:53;;;;;;;;;;;21.90;43.60;;;;;;5066361;28;19915;-41
2024/03/30 00:18:18;;;;;;;;;;;21.90;43.50;;;;;;5069695;28;19916;-41
2024/03/30 00:20:44;;;;;;;;;;;21.90;43.50;;;;;;5071335;28;19927;-43
2024/03/30 00:23:10;;;;;;;;;;;21.90;43.30;;;;;;5064497;28;19987;-44
2024/03/30 00:25:36;;;;;;;;;;;21.90;43.20;;;;;;5061675;28;19917;-43
2024/03/30 00:28:02;;;;;;;;;;;21.90;43.10;;;;;;5059406;28;19904;-44
2024/03/30 00:30:31;;;;;;;;;;;21.80;43.10;;;;;;5063380;28;19916;-42
2024/03/30 00:32:57;;;;;;;;;;;21.80;42.90;;;;;;5067709;28;19911;-42
2024/03/30 00:35:23;;;;;;;;;;;21.80;42.80;;;;;;5063901;28;19912;-47
2024/03/30 00:37:51;;;;;;;;;;;21.80;42.90;;;;;;5067168;28;19934;-45
2024/03/30 00:40:17;;;;;;;;;;;21.80;42.90;;;;;;5066482;28;19948;-44
2024/03/30 00:42:43;;;;;;;;;;;21.70;43.00;;;;;;5064736;28;19908;-47
2024/03/30 00:45:09;;;;;;;;;;;21.70;43.00;;;;;;5070557;28;19916;-43
2024/03/30 00:47:35;;;;;;;;;;;21.70;43.10;;;;;;5066331;28;19947;-45
2024/03/30 00:50:01;;;;;;;;;;;21.70;43.10;;;;;;5067041;28;19912;-43
2024/03/30 00:52:27;;;;;;;;;;;21.70;43.10;;;;;;5065919;28;19979;-43
2024/03/30 00:54:53;;;;;;;;;;;21.60;43.10;;;;;;5064870;28;19944;-44
2024/03/30 00:57:19;;;;;;;;;;;21.60;43.20;;;;;;5064894;28;20402;-41
2024/03/30 00:59:45;;;;;;;;;;;21.60;43.20;;;;;;5069647;28;19923;-41
2024/03/30 01:02:11;;;;;;;;;;;21.60;43.20;;;;;;5073143;28;19912;-42
2024/03/30 01:04:37;;;;;;;;;;;21.50;43.00;;;;;;5081551;28;19919;-41
2024/03/30 01:07:03;;;;;;;;;;;21.50;43.20;;;;;;5065620;28;19912;-43
2024/03/30 01:09:29;;;;;;;;;;;21.50;43.20;;;;;;5065484;28;19916;-42
2024/03/30 01:11:55;;;;;;;;;;;21.50;43.20;;;;;;5067171;28;19912;-45
2024/03/30 01:14:22;;;;;;;;;;;21.50;43.30;;;;;;5067638;28;19912;-44
2024/03/30 01:16:49;;;;;;;;;;;21.50;43.40;;;;;;5069307;28;19917;-47
2024/03/30 01:19:15;;;;;;;;;;;21.40;43.30;;;;;;5070254;28;19917;-43
2024/03/30 01:21:41;;;;;;;;;;;21.40;43.30;;;;;;5064058;28;19958;-43
2024/03/30 01:24:07;;;;;;;;;;;21.40;43.30;;;;;;5061107;28;19971;-41
2024/03/30 01:26:33;;;;;;;;;;;21.40;43.30;;;;;;5059996;28;19939;-43
2024/03/30 01:29:00;;;;;;;;;;;21.30;43.30;;;;;;5060346;28;19909;-43
2024/03/30 01:31:26;;;;;;;;;;;21.30;43.30;;;;;;5060251;28;19923;-44
2024/03/30 01:33:52;;;;;;;;;;;21.30;43.40;;;;;;5057761;28;19913;-42
2024/03/30 01:36:18;;;;;;;;;;;21.30;43.40;;;;;;5061237;28;19936;-42
2024/03/30 01:38:44;;;;;;;;;;;21.20;43.40;;;;;;5064166;28;20355;-43
2024/03/30 01:41:10;;;;;;;;;;;21.20;43.50;;;;;;5067094;28;19920;-43
2024/03/30 01:43:36;;;;;;;;;;;21.20;43.50;;;;;;5070702;28;19917;-42
2024/03/30 01:46:02;;;;;;;;;;;21.20;43.50;;;;;;5065732;28;19923;-41
2024/03/30 01:48:28;;;;;;;;;;;21.10;43.50;;;;;;5068980;28;20590;-44
2024/03/30 01:50:54;;;;;;;;;;;21.10;43.60;;;;;;5067933;28;19917;-44
2024/03/30 01:53:21;;;;;;;;;;;21.10;43.60;;;;;;5074875;28;20370;-43
2024/03/30 01:55:48;;;;;;;;;;;21.10;43.70;;;;;;5088349;28;19959;-47
2024/03/30 01:58:16;;;;;;;;;;;21.00;43.60;;;;;;5074651;28;19908;-43
2024/03/30 02:00:41;;;;;;;;;;;21.00;43.70;;;;;;5071481;28;19939;-43
2024/03/30 02:03:28;;;;;;;;;;;21.00;43.70;;;;;;5082216;28;19919;-42
2024/03/30 02:05:54;;;;;;;;;;;21.00;43.80;;;;;;5082126;28;19978;-44
2024/03/30 02:08:20;;;;;;;;;;;21.00;43.80;;;;;;5081678;28;19946;-43
2024/03/30 02:10:49;;;;;;;;;;;20.90;43.80;;;;;;5082277;28;19974;-46
2024/03/30 02:13:14;;;;;;;;;;;20.90;43.80;;;;;;5080460;28;19939;-42
2024/03/30 02:15:40;;;;;;;;;;;20.90;43.90;;;;;;5065563;28;19920;-42
2024/03/30 02:18:06;;;;;;;;;;;20.90;43.90;;;;;;5081291;28;19927;-45
2024/03/30 02:20:32;;;;;;;;;;;20.80;43.90;;;;;;5081586;28;19978;-42
2024/03/30 02:22:58;;;;;;;;;;;20.80;44.00;;;;;;5076922;28;19917;-44
2024/03/30 02:25:24;;;;;;;;;;;20.80;44.10;;;;;;5068371;28;19953;-43
2024/03/30 02:27:50;;;;;;;;;;;20.70;44.00;;;;;;5069509;28;19987;-45
2024/03/30 02:30:22;;;;;;;;;;;20.70;44.10;;;;;;5051496;28;19916;-43
2024/03/30 02:32:48;;;;;;;;;;;20.70;44.10;;;;;;5066552;28;19912;-44
2024/03/30 02:35:14;;;;;;;;;;;20.70;44.20;;;;;;5047931;28;19916;-43
2024/03/30 02:37:40;;;;;;;;;;;20.70;44.20;;;;;;5067314;28;19912;-44
2024/03/30 02:40:07;;;;;;;;;;;20.60;44.20;;;;;;5066159;28;19942;-45
2024/03/30 02:42:33;;;;;;;;;;;20.60;44.20;;;;;;5068425;28;20007;-42
2024/03/30 02:44:59;;;;;;;;;;;20.60;44.30;;;;;;5069758;28;19924;-42
2024/03/30 02:47:25;;;;;;;;;;;20.60;44.30;;;;;;5069721;28;20455;-43
2024/03/30 02:49:50;;;;;;;;;;;20.50;44.30;;;;;;5067538;28;19912;-47
2024/03/30 02:52:16;;;;;;;;;;;20.50;44.40;;;;;;5070530;28;19955;-44
2024/03/30 02:54:42;;;;;;;;;;;20.50;44.40;;;;;;5075684;28;19988;-42
2024/03/30 02:57:08;;;;;;;;;;;20.50;44.40;;;;;;5080624;28;19983;-46
2024/03/30 02:59:34;;;;;;;;;;;20.50;44.50;;;;;;5071626;28;19913;-47
2024/03/30 03:02:01;;;;;;;;;;;20.40;44.40;;;;;;5079199;28;19908;-42
2024/03/30 03:04:27;;;;;;;;;;;20.40;44.50;;;;;;5078929;28;19920;-43
2024/03/30 03:06:53;;;;;;;;;;;20.40;44.50;;;;;;5078578;28;19919;-50
2024/03/30 03:09:19;;;;;;;;;;;20.40;44.50;;;;;;5069301;28;19959;-43
2024/03/30 03:11:45;;;;;;;;;;;20.30;44.60;;;;;;5077545;28;19905;-42
2024/03/30 03:14:11;;;;;;;;;;;20.30;44.70;;;;;;5081823;28;19908;-42
2024/03/30 03:16:37;;;;;;;;;;;20.30;44.70;;;;;;5082245;28;19912;-45
2024/03/30 03:19:03;;;;;;;;;;;20.20;44.70;;;;;;5080982;28;19912;-45
2024/03/30 03:21:29;;;;;;;;;;;20.20;44.70;;;;;;5076069;28;19920;-41
2024/03/30 03:23:55;;;;;;;;;;;20.20;44.70;;;;;;5084002;28;19919;-44
2024/03/30 03:26:20;;;;;;;;;;;20.20;44.80;;;;;;5072227;28;19944;-41
2024/03/30 03:28:46;;;;;;;;;;;20.20;44.80;;;;;;5077744;28;19912;-44
2024/03/30 03:31:12;;;;;;;;;;;20.10;44.80;;;;;;5073851;28;19908;-43
2024/03/30 03:33:38;;;;;;;;;;;20.10;44.90;;;;;;5076647;28;19917;-46
2024/03/30 03:36:04;;;;;;;;;;;20.10;44.90;;;;;;5065147;28;19913;-45
2024/03/30 03:38:30;;;;;;;;;;;20.10;44.90;;;;;;5080346;28;19908;-42
2024/03/30 03:40:56;;;;;;;;;;;20.00;44.90;;;;;;5073537;28;19927;-45
2024/03/30 03:43:22;;;;;;;;;;;20.00;45.00;;;;;;5081171;28;20388;-47
2024/03/30 03:45:48;;;;;;;;;;;20.00;45.10;;;;;;5077928;28;19920;-48
2024/03/30 03:48:14;;;;;;;;;;;19.90;45.10;;;;;;5080279;28;19912;-43
2024/03/30 03:50:40;;;;;;;;;;;19.90;45.10;;;;;;5069981;28;19933;-45
2024/03/30 03:53:06;;;;;;;;;;;19.90;45.20;;;;;;5072791;28;20331;-45
2024/03/30 03:55:35;;;;;;;;;;;19.90;45.20;;;;;;5072437;28;19909;-43
2024/03/30 03:58:02;;;;;;;;;;;19.90;45.30;;;;;;5067349;28;19967;-44
2024/03/30 04:00:28;;;;;;;;;;;19.80;45.20;;;;;;5067233;28;19926;-46
2024/03/30 04:02:54;;;;;;;;;;;19.80;45.30;;;;;;5067023;28;20003;-45
2024/03/30 04:05:21;;;;;;;;;;;19.80;45.30;;;;;;5069050;28;19920;-43
2024/03/30 04:07:46;;;;;;;;;;;19.80;45.40;;;;;;5068741;28;19912;-42
2024/03/30 04:10:15;;;;;;;;;;;19.80;45.40;;;;;;5068514;28;19919;-41
2024/03/30 04:12:41;;;;;;;;;;;19.70;45.50;;;;;;5067618;28;19913;-46
2024/03/30 04:15:07;;;;;;;;;;;19.70;45.40;;;;;;5067540;28;19916;-44
2024/03/30 04:17:33;;;;;;;;;;;19.70;45.50;;;;;;5068177;28;19908;-43
2024/03/30 04:19:59;;;;;;;;;;;19.70;45.50;;;;;;5064723;28;19917;-44
2024/03/30 04:22:25;;;;;;;;;;;19.60;45.50;;;;;;5068424;28;19912;-43
2024/03/30 04:24:51;;;;;;;;;;;19.60;45.60;;;;;;5063120;28;19919;-43
2024/03/30 04:27:17;;;;;;;;;;;19.60;45.60;;;;;;5071838;28;19951;-43
2024/03/30 04:29:43;;;;;;;;;;;19.60;45.70;;;;;;5077552;28;19912;-42
2024/03/30 04:32:09;;;;;;;;;;;19.60;45.70;;;;;;5074582;28;19913;-43
2024/03/30 04:34:35;;;;;;;;;;;19.50;45.70;;;;;;5072983;28;20305;-45
2024/03/30 04:37:01;;;;;;;;;;;19.50;45.70;;;;;;5067293;28;19934;-44
2024/03/30 04:39:27;;;;;;;;;;;19.50;46.00;;;;;;5073973;28;20003;-42
2024/03/30 04:41:53;;;;;;;;;;;19.50;46.30;;;;;;5070098;28;19916;-45
2024/03/30 04:44:19;;;;;;;;;;;19.60;46.30;;;;;;5087641;28;20376;-46
2024/03/30 04:46:45;;;;;;;;;;;19.60;46.30;;;;;;5075069;28;19931;-46
2024/03/30 04:49:11;;;;;;;;;;;19.50;46.20;;;;;;5072381;28;19913;-41
2024/03/30 04:51:37;;;;;;;;;;;19.50;46.20;;;;;;5068849;28;20102;-42
2024/03/30 04:54:03;;;;;;;;;;;19.50;46.20;;;;;;5069189;28;19908;-43
2024/03/30 04:56:29;;;;;;;;;;;19.40;46.20;;;;;;5064674;28;19928;-43
2024/03/30 04:58:54;;;;;;;;;;;19.40;46.20;;;;;;5069677;28;19921;-43
2024/03/30 05:01:21;;;;;;;;;;;19.40;46.30;;;;;;5064896;28;19920;-42
2024/03/30 05:03:47;;;;;;;;;;;19.40;46.30;;;;;;5065502;28;19916;-44
2024/03/30 05:06:12;;;;;;;;;;;19.40;46.60;;;;;;5066310;28;19971;-43
2024/03/30 05:08:38;;;;;;;;;;;19.50;46.80;;;;;;5063269;28;19923;-43
2024/03/30 05:11:04;;;;;;;;;;;19.40;46.70;;;;;;5061835;28;21001;-42
2024/03/30 05:13:30;;;;;;;;;;;19.40;46.70;;;;;;5066160;28;19912;-43
2024/03/30 05:15:56;;;;;;;;;;;19.40;46.70;;;;;;5064023;28;19915;-42
2024/03/30 05:18:22;;;;;;;;;;;19.40;46.70;;;;;;5063793;28;19934;-41
2024/03/30 05:20:57;;;;;;;;;;;19.40;46.60;;;;;;5067831;28;19921;-45
2024/03/30 05:23:26;;;;;;;;;;;19.40;46.60;;;;;;5064728;28;19913;-44
2024/03/30 05:25:53;;;;;;;;;;;19.30;46.60;;;;;;5074391;28;19909;-43
2024/03/30 05:28:19;;;;;;;;;;;19.30;46.60;;;;;;5070930;28;19920;-43
2024/03/30 05:30:48;;;;;;;;;;;19.30;46.90;;;;;;5070271;28;19938;-46
2024/03/30 05:33:14;;;;;;;;;;;19.40;47.10;;;;;;5070826;28;19916;-42
2024/03/30 05:35:40;;;;;;;;;;;19.40;47.10;;;;;;5071103;28;19939;-44
2024/03/30 05:38:06;;;;;;;;;;;19.40;47.10;;;;;;5071653;28;19913;-42
2024/03/30 05:40:32;;;;;;;;;;;19.40;47.00;;;;;;5074673;28;19939;-43
2024/03/30 05:42:59;;;;;;;;;;;19.40;47.00;;;;;;5077314;28;19979;-44
2024/03/30 05:45:25;;;;;;;;;;;19.30;46.90;;;;;;5075396;28;19921;-44
2024/03/30 05:47:51;;;;;;;;;;;19.30;46.90;;;;;;5078214;28;19993;-43
2024/03/30 05:50:17;;;;;;;;;;;19.30;46.90;;;;;;5067121;28;19916;-42
2024/03/30 05:52:43;;;;;;;;;;;19.30;47.20;;;;;;5071071;28;19912;-44
2024/03/30 05:55:09;;;;;;;;;;;19.40;47.30;;;;;;5072079;28;19912;-46
2024/03/30 05:57:35;;;;;;;;;;;19.40;47.30;;;;;;5074061;28;19924;-47
2024/03/30 06:00:01;;;;;;;;;;;19.40;47.30;;;;;;5071993;28;19948;-43
2024/03/30 06:02:27;;;;;;;;;;;19.30;47.20;;;;;;5068895;28;19915;-42
2024/03/30 06:04:53;;;;;;;;;;;19.30;47.10;;;;;;5072300;28;19913;-43
2024/03/30 06:07:19;;;;;;;;;;;19.30;47.10;;;;;;5071928;28;20039;-43
2024/03/30 06:09:45;;;;;;;;;;;19.30;47.10;;;;;;5065012;28;19924;-41
2024/03/30 06:12:11;;;;;;;;;;;19.30;47.40;;;;;;5064306;28;19912;-43
2024/03/30 06:14:37;;;;;;;;;;;19.30;47.40;;;;;;5067383;28;19912;-44
2024/03/30 06:17:03;;;;;;;;;;;19.30;47.40;;;;;;5064859;28;19909;-43
2024/03/30 06:19:28;;;;;;;;;;;19.30;47.40;;;;;;5061041;28;20632;-42
2024/03/30 06:21:54;;;;;;;;;;;19.30;47.40;;;;;;5064008;28;19956;-42
2024/03/30 06:24:20;;;;;;;;;;;19.30;47.30;;;;;;5068467;28;19909;-42
2024/03/30 06:26:46;;;;;;;;;;;19.20;47.30;;;;;;5072582;28;20498;-42
2024/03/30 06:29:12;;;;;;;;;;;19.20;47.30;;;;;;5069364;28;19912;-42
2024/03/30 06:31:38;;;;;;;;;;;19.30;47.40;;;;;;5071147;28;19950;-44
2024/03/30 06:34:05;;;;;;;;;;;19.30;47.60;;;;;;5070532;28;19916;-42
2024/03/30 06:36:31;;;;;;;;;;;19.30;47.60;;;;;;5066773;28;19912;-42
2024/03/30 06:38:57;;;;;;;;;;;19.30;47.60;;;;;;5070938;28;19909;-43
2024/03/30 06:44:08;;;;;;;;;;;19.30;47.60;;;;;;5074983;28;20719;-43
2024/03/30 06:46:35;;;;;;;;;;;19.20;47.50;;;;;;5069379;28;19924;-42
2024/03/30 06:49:01;;;;;;;;;;;19.20;47.40;;;;;;5075520;28;19912;-42
2024/03/30 06:51:47;;;;;;;;;;;19.20;47.50;;;;;;5102233;28;19908;-45
2024/03/30 06:54:13;;;;;;;;;;;19.20;47.70;;;;;;5088553;28;19923;-43
2024/03/30 06:56:39;;;;;;;;;;;19.30;47.80;;;;;;5088662;28;19948;-45
2024/03/30 06:59:05;;;;;;;;;;;19.30;47.70;;;;;;5089721;28;19919;-43
2024/03/30 07:01:31;;;;;;;;;;;19.30;47.70;;;;;;5089219;28;19920;-43
2024/03/30 07:03:57;;;;;;;;;;;19.20;47.70;;;;;;5085375;28;19908;-44
2024/03/30 07:06:23;;;;;;;;;;;19.20;47.60;;;;;;5085027;28;19911;-44
2024/03/30 07:08:51;;;;;;;;;;;19.20;47.60;;;;;;5088176;28;19908;-43
2024/03/30 07:11:20;;;;;;;;;;;19.20;47.60;;;;;;5086109;28;19916;-44
2024/03/30 07:13:46;;;;;;;;;;;19.20;47.80;;;;;;5087460;28;19935;-45
2024/03/30 07:16:12;;;;;;;;;;;19.20;47.90;;;;;;5088211;28;20301;-45
2024/03/30 07:18:38;;;;;;;;;;;19.30;47.90;;;;;;5087581;28;19912;-44
2024/03/30 07:21:04;;;;;;;;;;;19.20;47.80;;;;;;5085303;28;19924;-42
2024/03/30 07:23:30;;;;;;;;;;;19.20;47.80;;;;;;5090492;28;19931;-42
2024/03/30 07:25:56;;;;;;;;;;;19.20;47.80;;;;;;5101343;28;19912;-44
2024/03/30 07:28:22;;;;;;;;;;;19.20;47.80;;;;;;5095469;28;19920;-45
2024/03/30 07:30:53;;;;;;;;;;;19.20;47.80;;;;;;5076192;28;19959;-45
2024/03/30 07:33:19;;;;;;;;;;;19.20;48.00;;;;;;5081177;28;19916;-45
2024/03/30 07:35:54;;;;;;;;;;;19.20;48.00;;;;;;5082154;28;19931;-46
2024/03/30 07:38:23;;;;;;;;;;;19.20;48.00;;;;;;5080806;28;19974;-43
2024/03/30 07:40:50;;;;;;;;;;;19.20;48.00;;;;;;5080223;28;19924;-44
2024/03/30 07:43:16;;;;;;;;;;;19.20;48.00;;;;;;5074216;28;19912;-44
2024/03/30 07:45:42;;;;;;;;;;;19.20;48.00;;;;;;5084689;28;19916;-42
2024/03/30 07:48:08;;;;;;;;;;;19.20;47.90;;;;;;5081768;28;19909;-43
2024/03/30 07:50:54;;;;;;;;;;;19.10;47.90;;;;;;5100649;28;19923;-44
2024/03/30 07:53:20;;;;;;;;;;;19.10;48.00;;;;;;5093428;28;19912;-44
2024/03/30 07:55:46;;;;;;;;;;;19.20;48.20;;;;;;5100716;28;19955;-44
2024/03/30 07:58:12;;;;;;;;;;;19.20;48.10;;;;;;5100419;28;19914;-43
2024/03/30 08:00:38;;;;;;;;;;;19.20;48.10;;;;;;5100593;28;19963;-42
2024/03/30 08:03:04;;;;;;;;;;;19.20;48.10;;;;;;5100488;28;20824;-44
2024/03/30 08:05:31;;;;;;;;;;;19.20;48.70;;;;;;5100757;28;19908;-43
2024/03/30 08:07:57;;;;;;;;;;;19.10;48.00;;;;;;5100245;28;19908;-47
2024/03/30 08:10:23;;;;;;;;;;;19.10;48.00;;;;;;5096679;28;19939;-47
2024/03/30 08:12:49;;;;;;;;;;;19.20;48.30;;;;;;5100450;28;20042;-43
2024/03/30 08:15:15;;;;;;;;;;;19.20;48.30;;;;;;5100162;28;19999;-45
2024/03/30 08:17:41;;;;;;;;;;;19.20;48.20;;;;;;5100365;28;19943;-43
2024/03/30 08:20:08;;;;;;;;;;;19.20;48.30;;;;;;5100212;28;19916;-42
2024/03/30 08:22:35;;;;;;;;;;;19.20;48.20;;;;;;5098721;28;20087;-43
2024/03/30 08:25:01;;;;;;;;;;;19.20;48.20;;;;;;5097186;28;19912;-44
2024/03/30 08:27:27;;;;;;;;;;;19.10;48.10;;;;;;5094802;28;19990;-43
2024/03/30 08:29:53;;;;;;;;;;;19.10;48.10;;;;;;5074981;28;20369;-46
2024/03/30 08:32:19;;;;;;;;;;;19.10;48.30;;;;;;5081133;28;19916;-44
2024/03/30 08:34:45;;;;;;;;;;;19.20;48.30;;;;;;5068217;28;19909;-43
2024/03/30 08:37:11;;;;;;;;;;;19.20;48.30;;;;;;5079176;28;19981;-48
2024/03/30 08:39:37;;;;;;;;;;;19.20;48.30;;;;;;5074133;28;19912;-43
2024/03/30 08:42:03;;;;;;;;;;;19.20;48.30;;;;;;5078520;28;19916;-44
2024/03/30 08:44:28;;;;;;;;;;;19.10;48.20;;;;;;5081198;28;19979;-45
2024/03/30 08:46:54;;;;;;;;;;;19.10;48.20;;;;;;5081407;28;19912;-43
2024/03/30 08:49:20;;;;;;;;;;;19.10;48.30;;;;;;5081617;28;19913;-44
2024/03/30 08:51:46;;;;;;;;;;;19.20;48.50;;;;;;5080553;28;19912;-45
2024/03/30 08:54:12;;;;;;;;;;;19.20;48.40;;;;;;5072894;28;19912;-43
2024/03/30 08:56:38;;;;;;;;;;;19.20;48.40;;;;;;5071300;28;19944;-44
2024/03/30 08:59:04;;;;;;;;;;;19.20;48.30;;;;;;5069721;28;19917;-43
2024/03/30 09:01:29;;;;;;;;;;;19.20;48.50;;;;;;5071398;28;20008;-47
2024/03/30 09:03:55;;;;;;;;;;;19.10;48.20;;;;;;5071108;28;19919;-47
2024/03/30 09:06:21;;;;;;;;;;;19.10;48.30;;;;;;5076962;28;19936;-43
2024/03/30 09:08:47;;;;;;;;;;;19.10;48.40;;;;;;5069850;28;19931;-43
2024/03/30 09:11:13;;;;;;;;;;;19.20;48.50;;;;;;5068692;28;19912;-44
2024/03/30 09:13:40;;;;;;;;;;;19.20;48.40;;;;;;5073492;28;19956;-43
2024/03/30 09:16:06;;;;;;;;;;;19.20;48.50;;;;;;5070809;28;20293;-43
2024/03/30 09:18:32;;;;;;;;;;;19.10;48.40;;;;;;5069358;28;19919;-44
2024/03/30 09:21:05;;;;;;;;;;;19.10;48.40;;;;;;5073811;28;19921;-45
2024/03/30 09:23:31;;;;;;;;;;;19.10;48.30;;;;;;5073071;28;19918;-44
2024/03/30 09:25:57;;;;;;;;;;;19.10;48.40;;;;;;5075572;28;19912;-45
2024/03/30 09:28:23;;;;;;;;;;;19.10;48.50;;;;;;5077498;28;20388;-43
2024/03/30 09:30:49;;;;;;;;;;;19.20;48.50;;;;;;5076683;28;19916;-45
2024/03/30 09:33:15;;;;;;;;;;;19.20;48.50;;;;;;5084347;28;19908;-44
2024/03/30 09:35:41;;;;;;;;;;;19.20;48.50;;;;;;5084832;28;20440;-45
2024/03/30 09:38:06;;;;;;;;;;;19.10;48.40;;;;;;5076599;28;19912;-43
2024/03/30 09:40:33;;;;;;;;;;;19.10;48.40;;;;;;5075482;28;20377;-46
2024/03/30 09:43:02;;;;;;;;;;;19.10;48.40;;;;;;5069599;28;19923;-45
2024/03/30 09:45:28;;;;;;;;;;;19.00;48.50;;;;;;5066952;28;19920;-46
2024/03/30 09:47:57;;;;;;;;;;;19.10;48.60;;;;;;5069078;28;19935;-44
2024/03/30 09:50:23;;;;;;;;;;;19.20;48.60;;;;;;5069312;28;19985;-44
2024/03/30 09:52:49;;;;;;;;;;;19.20;48.60;;;;;;5069435;28;20485;-45
2024/03/30 09:55:17;;;;;;;;;;;19.10;48.50;;;;;;5074681;28;19988;-46
2024/03/30 09:57:52;;;;;;;;;;;19.10;48.50;;;;;;5071043;28;20017;-45
2024/03/30 10:00:18;;;;;;;;;;;19.10;48.50;;;;;;5070588;28;19924;-44
2024/03/30 10:02:44;;;;;;;;;;;19.00;48.40;;;;;;5072491;28;20312;-45
2024/03/30 10:05:10;;;;;;;;;;;19.10;48.70;;;;;;5071377;28;19913;-43
2024/03/30 10:07:36;;;;;;;;;;;19.10;48.70;;;;;;5073505;28;19922;-48
2024/03/30 10:10:11;;;;;;;;;;;19.20;48.70;;;;;;5073617;28;19908;-45
2024/03/30 10:12:38;;;;;;;;;;;19.20;48.70;;;;;;5077891;28;19916;-44
2024/03/30 10:15:06;;;;;;;;;;;19.10;48.70;;;;;;5082964;28;19912;-43
2024/03/30 10:17:32;;;;;;;;;;;19.10;48.60;;;;;;5071917;28;20346;-46
2024/03/30 10:19:58;;;;;;;;;;;19.10;48.60;;;;;;5080858;28;19938;-43
2024/03/30 10:22:25;;;;;;;;;;;19.00;48.60;;;;;;5070905;28;19971;-44
2024/03/30 10:24:53;;;;;;;;;;;19.10;48.80;;;;;;5078639;28;19934;-45
2024/03/30 10:27:19;;;;;;;;;;;19.10;49.30;;;;;;5074486;28;19916;-44
2024/03/30 10:29:45;;;;;;;;;;;19.20;48.70;;;;;;5078407;28;20094;-42
2024/03/30 10:32:11;;;;;;;;;;;19.10;48.70;;;;;;5078138;28;19908;-46
2024/03/30 10:34:37;;;;;;;;;;;19.10;48.70;;;;;;5083260;28;19984;-46
2024/03/30 10:37:03;;;;;;;;;;;19.10;48.70;;;;;;5082355;28;20349;-43
2024/03/30 10:39:29;;;;;;;;;;;19.00;48.60;;;;;;5070264;28;19963;-43
2024/03/30 10:41:55;;;;;;;;;;;19.00;48.70;;;;;;5067508;28;19931;-47
2024/03/30 10:44:28;;;;;;;;;;;19.10;48.90;;;;;;5070397;28;19928;-44
2024/03/30 10:46:54;;;;;;;;;;;19.10;48.80;;;;;;5072774;28;20092;-45
2024/03/30 10:49:20;;;;;;;;;;;19.10;48.70;;;;;;5070666;28;19919;-44
2024/03/30 10:51:46;;;;;;;;;;;19.10;48.70;;;;;;5068483;28;19975;-43
2024/03/30 10:54:18;;;;;;;;;;;19.10;48.80;;;;;;5071887;28;19999;-42
2024/03/30 10:56:48;;;;;;;;;;;19.10;48.80;;;;;;5068913;28;21388;-43
2024/03/30 10:59:16;;;;;;;;;;;19.00;48.70;;;;;;5070663;28;19912;-45
2024/03/30 11:01:41;;;;;;;;;;;19.00;48.80;;;;;;5074159;28;19916;-45
2024/03/30 11:04:07;;;;;;;;;;;19.10;48.90;;;;;;5071239;28;19920;-44
2024/03/30 11:06:33;;;;;;;;;;;19.20;48.80;;;;;;5064869;28;19976;-44
2024/03/30 11:08:59;;;;;;;;;;;19.20;48.90;;;;;;5072525;28;19921;-43
2024/03/30 11:11:25;;;;;;;;;;;19.10;48.80;;;;;;5075340;28;19913;-46
2024/03/30 11:13:51;;;;;;;;;;;19.10;48.80;;;;;;5081845;28;19912;-46
2024/03/30 11:16:17;;;;;;;;;;;19.00;48.70;;;;;;5081653;28;19927;-45
2024/03/30 11:18:49;;;;;;;;;;;19.00;48.80;;;;;;5082664;28;19938;-44
2024/03/30 11:21:15;;;;;;;;;;;19.10;48.90;;;;;;5072449;28;19916;-44
2024/03/30 11:23:42;;;;;;;;;;;19.10;48.90;;;;;;5097998;28;19912;-43
2024/03/30 11:26:09;;;;;;;;;;;19.10;48.90;;;;;;5081194;28;19920;-45
2024/03/30 11:28:43;;;;;;;;;;;19.10;48.80;;;;;;5080151;28;19919;-44
2024/03/30 11:31:27;;;;;;;;;;;19.10;48.90;;;;;;5072638;28;19951;-47
2024/03/30 11:34:10;;;;;;;;;;;19.10;48.80;;;;;;5073036;28;19915;-43
2024/03/30 11:36:54;;;;;;;;;;;19.00;48.80;;;;;;5067114;28;19916;-46
2024/03/30 11:39:20;;;;;;;;;;;19.00;48.90;;;;;;5069827;28;19978;-46
2024/03/30 11:41:48;;;;;;;;;;;19.10;49.50;;;;;;5065953;28;19928;-43
2024/03/30 11:44:16;;;;;;;;;;;19.10;48.90;;;;;;5069887;28;19927;-47
2024/03/30 11:46:42;;;;;;;;;;;19.10;48.90;;;;;;5065998;28;20438;-44
2024/03/30 11:49:07;;;;;;;;;;;19.10;48.90;;;;;;5068376;28;19912;-45
2024/03/30 11:51:38;;;;;;;;;;;19.00;48.90;;;;;;5068375;28;20364;-48
2024/03/30 11:54:25;;;;;;;;;;;19.10;48.90;;;;;;5071161;28;19912;-45
2024/03/30 11:57:09;;;;;;;;;;;19.00;49.00;;;;;;5069917;28;19913;-48
2024/03/30 11:59:38;;;;;;;;;;;19.10;49.10;;;;;;5070462;28;19961;-46
2024/03/30 12:02:11;;;;;;;;;;;19.10;49.00;;;;;;5067385;28;19916;-44
2024/03/30 12:04:38;;;;;;;;;;;19.10;49.00;;;;;;5069738;28;19935;-46
2024/03/30 12:07:08;;;;;;;;;;;19.10;49.00;;;;;;5072392;28;20284;-44
2024/03/30 12:09:34;;;;;;;;;;;19.10;49.00;;;;;;5069415;28;20034;-47
2024/03/30 12:12:17;;;;;;;;;;;19.00;48.90;;;;;;5061556;28;19909;-44
2024/03/30 12:14:43;;;;;;;;;;;19.00;48.90;;;;;;5077060;28;19920;-42
2024/03/30 12:17:08;;;;;;;;;;;19.00;49.60;;;;;;5071592;28;19916;-42
2024/03/30 12:19:35;;;;;;;;;;;19.10;49.10;;;;;;5075268;28;19920;-44
2024/03/30 12:22:01;;;;;;;;;;;19.10;49.10;;;;;;5075049;28;19920;-43
2024/03/30 12:24:27;;;;;;;;;;;19.10;49.10;;;;;;5079392;28;19909;-43
2024/03/30 12:26:53;;;;;;;;;;;19.10;49.10;;;;;;5076944;28;20011;-48
2024/03/30 12:29:19;;;;;;;;;;;19.00;49.00;;;;;;5082785;28;19955;-44
2024/03/30 12:31:45;;;;;;;;;;;19.00;49.00;;;;;;5082556;28;19915;-45
2024/03/30 12:34:11;;;;;;;;;;;19.00;49.20;;;;;;5081134;28;19968;-47
2024/03/30 12:36:37;;;;;;;;;;;19.10;49.20;;;;;;5071237;28;20575;-46
2024/03/30 12:39:03;;;;;;;;;;;19.10;49.10;;;;;;5078159;28;20309;-45
2024/03/30 12:41:29;;;;;;;;;;;19.10;49.10;;;;;;5082307;28;19932;-43
2024/03/30 12:43:58;;;;;;;;;;;19.10;49.10;;;;;;5082625;28;19912;-44
2024/03/30 12:46:24;;;;;;;;;;;19.00;49.10;;;;;;5078989;28;19912;-44
2024/03/30 12:48:50;;;;;;;;;;;19.00;49.10;;;;;;5070873;28;19966;-47
2024/03/30 12:51:16;;;;;;;;;;;19.00;49.10;;;;;;5074026;28;19913;-49
2024/03/30 12:53:42;;;;;;;;;;;19.00;49.20;;;;;;5084311;28;19915;-45
2024/03/30 12:56:08;;;;;;;;;;;19.10;49.20;;;;;;5075965;28;19984;-43
2024/03/30 12:58:33;;;;;;;;;;;19.10;49.20;;;;;;5081309;28;19912;-46
2024/03/30 13:01:01;;;;;;;;;;;19.10;49.20;;;;;;5074289;28;19920;-45
2024/03/30 13:03:27;;;;;;;;;;;19.10;49.10;;;;;;5070157;28;19920;-45
2024/03/30 13:05:53;;;;;;;;;;;19.10;49.10;;;;;;5071354;28;19909;-43
2024/03/30 13:08:19;;;;;;;;;;;19.00;49.10;;;;;;5067016;28;19923;-46
2024/03/30 13:10:47;;;;;;;;;;;19.10;49.30;;;;;;5082021;28;19940;-46
2024/03/30 13:13:13;;;;;;;;;;;19.10;49.30;;;;;;5065306;28;19919;-45
2024/03/30 13:15:39;;;;;;;;;;;19.20;49.30;;;;;;5071095;28;19944;-48
2024/03/30 13:18:05;;;;;;;;;;;19.20;49.30;;;;;;5070888;28;20511;-46
2024/03/30 13:20:31;;;;;;;;;;;19.20;49.30;;;;;;5067540;28;19926;-44
2024/03/30 13:22:59;;;;;;;;;;;19.10;49.20;;;;;;5074036;28;19936;-45
2024/03/30 13:25:24;;;;;;;;;;;19.10;49.10;;;;;;5079819;28;20450;-46
2024/03/30 13:27:50;;;;;;;;;;;19.10;49.10;;;;;;5071259;28;19912;-47
2024/03/30 13:30:16;;;;;;;;;;;19.20;49.30;;;;;;5071798;28;20454;-43
2024/03/30 13:32:42;;;;;;;;;;;19.30;49.40;;;;;;5063337;28;20091;-43
2024/03/30 13:35:08;;;;;;;;;;;19.30;49.30;;;;;;5074846;28;19976;-46
2024/03/30 13:37:34;;;;;;;;;;;19.30;49.30;;;;;;5073870;28;19919;-44
2024/03/30 13:40:00;;;;;;;;;;;19.30;49.20;;;;;;5076079;28;19987;-45
2024/03/30 13:42:27;;;;;;;;;;;19.20;49.20;;;;;;5074647;28;19969;-45
2024/03/30 13:44:52;;;;;;;;;;;19.20;49.10;;;;;;5074396;28;19920;-46
2024/03/30 13:47:18;;;;;;;;;;;19.20;49.10;;;;;;5070610;28;19944;-43
2024/03/30 13:49:44;;;;;;;;;;;19.30;49.20;;;;;;5077082;28;19947;-48
2024/03/30 13:52:10;;;;;;;;;;;19.40;49.30;;;;;;5076997;28;19992;-47
2024/03/30 13:54:36;;;;;;;;;;;19.40;49.30;;;;;;5073339;28;20443;-46
2024/03/30 13:57:03;;;;;;;;;;;19.40;49.20;;;;;;5067209;28;19909;-44
2024/03/30 13:59:29;;;;;;;;;;;19.40;49.20;;;;;;5084662;28;20452;-45
2024/03/30 14:01:55;;;;;;;;;;;19.40;49.10;;;;;;5070169;28;19944;-44
2024/03/30 14:04:21;;;;;;;;;;;19.40;49.10;;;;;;5070163;28;20461;-47
2024/03/30 14:06:47;;;;;;;;;;;19.40;49.00;;;;;;5066666;28;19920;-46
2024/03/30 14:09:13;;;;;;;;;;;19.40;49.00;;;;;;5070000;28;19919;-44
2024/03/30 14:11:38;;;;;;;;;;;19.40;48.90;;;;;;5079749;28;19909;-43
2024/03/30 14:14:04;;;;;;;;;;;19.40;49.00;;;;;;5073328;28;19919;-43
2024/03/30 14:16:30;;;;;;;;;;;19.50;49.20;;;;;;5070041;28;19912;-42